createdAt,value
2018-03-25T00:00:04.708Z,76.43
2018-03-25T00:01:07.979Z,73.47
2018-03-25T00:02:10.470Z,70.80
2018-03-25T00:03:13.764Z,69.22
2018-03-25T00:04:16.268Z,75.95
2018-03-25T00:05:18.797Z,68.70
2018-03-25T00:06:21.296Z,75.53
2018-03-25T00:07:24.833Z,75.45
2018-03-25T00:08:28.110Z,67.12
2018-03-25T00:09:30.611Z,73.90
2018-03-25T00:10:33.090Z,79.25
2018-03-25T00:11:35.671Z,84.80
2018-03-25T00:12:38.206Z,78.30
2018-03-25T00:13:40.695Z,77.62
2018-03-25T00:14:43.180Z,79.97
2018-03-25T00:15:45.640Z,73.28
2018-03-25T00:16:48.141Z,78.28
2018-03-25T00:17:50.631Z,76.12
2018-03-25T00:18:53.109Z,78.18
2018-03-25T00:19:55.772Z,77.85
2018-03-25T00:20:58.302Z,101.45
2018-03-25T00:22:00.814Z,97.90
2018-03-25T00:23:04.073Z,88.62
2018-03-25T00:24:06.532Z,84.75
2018-03-25T00:25:09.456Z,81.87
2018-03-25T00:26:12.066Z,101.68
2018-03-25T00:27:14.664Z,89.10
2018-03-25T00:28:18.058Z,83.45
2018-03-25T00:29:20.560Z,79.85
2018-03-25T00:30:23.785Z,86.60
2018-03-25T00:31:27.045Z,71.90
2018-03-25T00:32:29.517Z,79.68
2018-03-25T00:33:32.003Z,82.45
2018-03-25T00:34:34.539Z,87.75
2018-03-25T00:35:37.053Z,82.50
2018-03-25T00:36:39.567Z,71.25
2018-03-25T00:37:42.074Z,75.10
2018-03-25T00:38:45.329Z,84.80
2018-03-25T00:39:48.559Z,74.40
2018-03-25T00:40:51.798Z,76.62
2018-03-25T00:41:55.070Z,71.20
2018-03-25T00:42:57.550Z,76.10
2018-03-25T00:44:00.797Z,75.50
2018-03-25T00:45:03.339Z,75.70
2018-03-25T00:46:06.598Z,79.70
2018-03-25T00:47:09.103Z,68.20
2018-03-25T00:48:12.453Z,72.28
2018-03-25T00:49:15.167Z,75.90
2018-03-25T00:50:19.892Z,76.50
2018-03-25T00:51:22.362Z,71.57
2018-03-25T00:52:24.930Z,70.90
2018-03-25T00:53:27.498Z,82.22
2018-03-25T00:54:29.984Z,73.75
2018-03-25T00:55:33.259Z,75.78
2018-03-25T00:56:35.896Z,76.82
2018-03-25T00:57:38.907Z,76.65
2018-03-25T00:58:41.377Z,81.00
2018-03-25T00:59:43.891Z,74.25
2018-03-25T01:00:46.448Z,74.22
2018-03-25T01:01:48.941Z,75.62
2018-03-25T01:02:51.424Z,74.15
2018-03-25T01:03:53.894Z,73.78
2018-03-25T01:04:56.376Z,88.97
2018-03-25T01:05:58.851Z,76.12
2018-03-25T01:07:01.612Z,72.40
2018-03-25T01:08:04.866Z,77.03
2018-03-25T01:09:07.346Z,74.53
2018-03-25T01:10:10.115Z,71.35
2018-03-25T01:11:12.652Z,72.45
2018-03-25T01:12:15.168Z,72.18
2018-03-25T01:13:18.393Z,67.05
2018-03-25T01:14:21.631Z,76.68
2018-03-25T01:15:24.891Z,75.53
2018-03-25T01:16:28.146Z,75.00
2018-03-25T01:17:30.652Z,70.85
2018-03-25T01:18:34.645Z,78.35
2018-03-25T01:19:37.173Z,85.07
2018-03-25T01:20:39.638Z,70.93
2018-03-25T01:21:42.873Z,75.57
2018-03-25T01:22:45.554Z,77.32
2018-03-25T01:23:48.039Z,75.07
2018-03-25T01:24:51.322Z,77.95
2018-03-25T01:25:54.300Z,81.35
2018-03-25T01:26:56.774Z,85.55
2018-03-25T01:27:59.307Z,78.22
2018-03-25T01:29:01.786Z,75.60
2018-03-25T01:30:04.316Z,80.65
2018-03-25T01:31:06.784Z,77.53
2018-03-25T01:32:09.266Z,80.18
2018-03-25T01:33:11.731Z,74.35
2018-03-25T01:34:14.219Z,76.82
2018-03-25T01:35:16.715Z,75.50
2018-03-25T01:36:19.211Z,78.25
2018-03-25T01:37:21.681Z,76.93
2018-03-25T01:38:24.927Z,78.18
2018-03-25T01:39:27.419Z,82.80
2018-03-25T01:40:29.932Z,77.47
2018-03-25T01:41:32.455Z,85.97
2018-03-25T01:42:34.926Z,74.07
2018-03-25T01:43:37.395Z,79.20
2018-03-25T01:44:40.206Z,76.68
2018-03-25T01:45:43.451Z,78.85
2018-03-25T01:46:46.720Z,83.00
2018-03-25T01:47:49.202Z,76.37
2018-03-25T01:48:51.764Z,72.32
2018-03-25T01:49:54.274Z,83.45
2018-03-25T01:50:57.238Z,77.25
2018-03-25T01:51:59.716Z,81.30
2018-03-25T01:53:02.230Z,78.28
2018-03-25T01:54:04.795Z,77.20
2018-03-25T01:55:08.058Z,74.50
2018-03-25T01:56:11.052Z,72.32
2018-03-25T01:57:13.516Z,78.05
2018-03-25T01:58:16.755Z,70.05
2018-03-25T01:59:19.270Z,77.60
2018-03-25T02:00:22.507Z,77.93
2018-03-25T02:01:25.875Z,74.65
2018-03-25T02:02:28.351Z,77.18
2018-03-25T02:03:30.810Z,78.07
2018-03-25T02:04:33.362Z,75.37
2018-03-25T02:05:35.843Z,77.97
2018-03-25T02:06:39.159Z,72.43
2018-03-25T02:07:43.163Z,66.03
2018-03-25T02:08:45.653Z,80.12
2018-03-25T02:09:48.224Z,73.60
2018-03-25T02:10:50.719Z,74.22
2018-03-25T02:11:53.984Z,75.87
2018-03-25T02:12:56.938Z,79.82
2018-03-25T02:14:00.226Z,74.50
2018-03-25T02:15:02.709Z,78.47
2018-03-25T02:16:05.239Z,75.25
2018-03-25T02:17:07.747Z,73.62
2018-03-25T02:18:10.220Z,73.40
2018-03-25T02:19:13.540Z,75.40
2018-03-25T02:20:15.997Z,75.75
2018-03-25T02:21:18.488Z,74.22
2018-03-25T02:22:21.085Z,74.40
2018-03-25T02:23:23.554Z,80.00
2018-03-25T02:24:26.012Z,75.37
2018-03-25T02:25:29.249Z,74.43
2018-03-25T02:26:31.814Z,77.97
2018-03-25T02:27:34.334Z,72.45
2018-03-25T02:28:36.808Z,106.57
2018-03-25T02:29:39.792Z,86.53
2018-03-25T02:30:42.265Z,81.12
2018-03-25T02:31:44.738Z,80.18
2018-03-25T02:32:47.280Z,82.70
2018-03-25T02:33:49.796Z,82.37
2018-03-25T02:34:52.298Z,80.87
2018-03-25T02:35:54.818Z,75.50
2018-03-25T02:36:57.284Z,71.45
2018-03-25T02:37:59.779Z,73.97
2018-03-25T02:39:03.017Z,72.07
2018-03-25T02:40:06.261Z,71.40
2018-03-25T02:41:09.495Z,76.95
2018-03-25T02:42:12.729Z,77.57
2018-03-25T02:43:15.299Z,68.65
2018-03-25T02:44:17.799Z,73.25
2018-03-25T02:45:21.035Z,76.45
2018-03-25T02:46:24.270Z,74.05
2018-03-25T02:47:26.818Z,71.45
2018-03-25T02:48:30.069Z,67.90
2018-03-25T02:49:32.541Z,71.20
2018-03-25T02:50:35.028Z,76.60
2018-03-25T02:51:37.959Z,79.45
2018-03-25T02:52:40.575Z,71.90
2018-03-25T02:53:43.807Z,79.95
2018-03-25T02:54:47.043Z,88.40
2018-03-25T02:55:50.276Z,74.12
2018-03-25T02:56:52.740Z,76.62
2018-03-25T02:57:55.230Z,71.75
2018-03-25T02:58:58.464Z,72.22
2018-03-25T03:00:00.922Z,74.65
2018-03-25T03:01:03.438Z,68.90
2018-03-25T03:02:06.662Z,68.53
2018-03-25T03:03:09.911Z,77.72
2018-03-25T03:04:13.177Z,70.30
2018-03-25T03:05:15.647Z,72.95
2018-03-25T03:06:18.246Z,74.90
2018-03-25T03:07:21.368Z,68.28
2018-03-25T03:08:23.841Z,70.57
2018-03-25T03:09:26.318Z,73.82
2018-03-25T03:10:28.803Z,72.40
2018-03-25T03:11:32.059Z,67.25
2018-03-25T03:12:35.297Z,75.20
2018-03-25T03:13:38.557Z,66.10
2018-03-25T03:14:41.807Z,75.60
2018-03-25T03:15:44.300Z,71.35
2018-03-25T03:16:46.840Z,76.78
2018-03-25T03:17:49.306Z,70.82
2018-03-25T03:18:51.783Z,72.45
2018-03-25T03:19:55.069Z,74.15
2018-03-25T03:20:57.558Z,69.05
2018-03-25T03:22:00.117Z,74.93
2018-03-25T03:23:02.602Z,68.82
2018-03-25T03:24:05.149Z,74.53
2018-03-25T03:25:08.381Z,74.22
2018-03-25T03:26:11.677Z,74.18
2018-03-25T03:27:14.892Z,76.87
2018-03-25T03:28:17.486Z,77.47
2018-03-25T03:29:19.887Z,67.15
2018-03-25T03:30:22.403Z,73.90
2018-03-25T03:31:25.237Z,73.45
2018-03-25T03:32:27.807Z,61.58
2018-03-25T03:33:30.395Z,72.62
2018-03-25T03:34:32.970Z,77.90
2018-03-25T03:35:36.293Z,77.82
2018-03-25T03:36:39.534Z,72.18
2018-03-25T03:37:42.440Z,66.50
2018-03-25T03:38:44.908Z,64.62
2018-03-25T03:39:48.264Z,71.95
2018-03-25T03:40:50.792Z,63.53
2018-03-25T03:41:54.019Z,68.30
2018-03-25T03:42:57.273Z,61.80
2018-03-25T03:44:00.504Z,71.70
2018-03-25T03:45:03.768Z,66.40
2018-03-25T03:46:06.264Z,70.47
2018-03-25T03:47:08.761Z,73.20
2018-03-25T03:48:11.238Z,67.65
2018-03-25T03:49:13.721Z,61.20
2018-03-25T03:50:16.205Z,63.05
2018-03-25T03:51:18.688Z,63.60
2018-03-25T03:52:21.174Z,63.50
2018-03-25T03:53:23.843Z,69.87
2018-03-25T03:54:26.490Z,71.57
2018-03-25T03:55:29.301Z,68.55
2018-03-25T03:56:32.568Z,63.35
2018-03-25T03:57:35.325Z,65.78
2018-03-25T03:58:37.828Z,68.28
2018-03-25T03:59:40.304Z,65.07
2018-03-25T04:00:42.979Z,67.43
2018-03-25T04:01:45.480Z,65.68
2018-03-25T04:02:48.457Z,70.62
2018-03-25T04:03:51.739Z,68.47
2018-03-25T04:04:54.218Z,75.87
2018-03-25T04:05:56.765Z,76.50
2018-03-25T04:06:59.244Z,74.43
2018-03-25T04:08:02.553Z,71.53
2018-03-25T04:09:05.088Z,68.20
2018-03-25T04:10:07.555Z,72.60
2018-03-25T04:11:10.031Z,69.53
2018-03-25T04:12:12.919Z,70.45
2018-03-25T04:13:15.408Z,74.30
2018-03-25T04:14:17.889Z,73.97
2018-03-25T04:15:20.349Z,70.82
2018-03-25T04:16:22.845Z,77.07
2018-03-25T04:17:25.313Z,77.78
2018-03-25T04:18:28.550Z,79.55
2018-03-25T04:19:31.085Z,74.43
2018-03-25T04:20:34.348Z,73.05
2018-03-25T04:21:37.753Z,79.70
2018-03-25T04:22:41.096Z,75.57
2018-03-25T04:23:43.597Z,72.65
2018-03-25T04:24:46.071Z,74.15
2018-03-25T04:25:49.288Z,72.22
2018-03-25T04:26:52.538Z,69.93
2018-03-25T04:27:55.023Z,64.50
2018-03-25T04:28:57.515Z,71.22
2018-03-25T04:30:00.747Z,69.68
2018-03-25T04:31:03.990Z,67.90
2018-03-25T04:32:07.237Z,72.78
2018-03-25T04:33:09.768Z,74.00
2018-03-25T04:34:13.033Z,67.25
2018-03-25T04:35:16.333Z,66.12
2018-03-25T04:36:18.797Z,68.50
2018-03-25T04:37:21.340Z,72.35
2018-03-25T04:38:23.827Z,71.68
2018-03-25T04:39:27.055Z,69.55
2018-03-25T04:40:29.551Z,68.78
2018-03-25T04:41:32.063Z,67.25
2018-03-25T04:42:34.530Z,68.75
2018-03-25T04:43:37.797Z,67.93
2018-03-25T04:44:40.835Z,71.45
2018-03-25T04:45:44.075Z,74.07
2018-03-25T04:46:47.325Z,76.68
2018-03-25T04:47:49.814Z,72.10
2018-03-25T04:48:52.286Z,73.50
2018-03-25T04:49:54.792Z,72.30
2018-03-25T04:50:58.049Z,72.22
2018-03-25T04:52:00.549Z,71.00
2018-03-25T04:53:03.803Z,71.95
2018-03-25T04:54:07.057Z,68.12
2018-03-25T04:55:09.564Z,67.75
2018-03-25T04:56:12.825Z,67.72
2018-03-25T04:57:15.311Z,67.75
2018-03-25T04:58:17.775Z,74.30
2018-03-25T04:59:20.331Z,71.10
2018-03-25T05:00:22.918Z,66.37
2018-03-25T05:01:26.150Z,64.97
2018-03-25T05:02:29.402Z,67.35
2018-03-25T05:03:31.927Z,67.07
2018-03-25T05:04:35.185Z,71.53
2018-03-25T05:05:38.393Z,71.60
2018-03-25T05:06:41.659Z,69.00
2018-03-25T05:07:44.201Z,66.18
2018-03-25T05:08:46.691Z,80.28
2018-03-25T05:09:49.933Z,88.32
2018-03-25T05:10:52.517Z,85.75
2018-03-25T05:11:55.029Z,90.43
2018-03-25T05:12:57.505Z,89.55
2018-03-25T05:13:59.978Z,89.13
2018-03-25T05:15:02.584Z,85.53
2018-03-25T05:16:05.156Z,95.50
2018-03-25T05:17:07.651Z,80.47
2018-03-25T05:18:10.131Z,84.18
2018-03-25T05:19:12.618Z,109.60
2018-03-25T05:20:15.111Z,94.13
2018-03-25T05:21:17.626Z,92.50
2018-03-25T05:22:20.889Z,82.85
2018-03-25T05:23:23.371Z,91.55
2018-03-25T05:24:25.839Z,75.50
2018-03-25T05:25:28.322Z,73.37
2018-03-25T05:26:30.897Z,70.22
2018-03-25T05:27:33.391Z,69.47
2018-03-25T05:28:36.635Z,65.57
2018-03-25T05:29:39.884Z,71.32
2018-03-25T05:30:43.114Z,63.75
2018-03-25T05:31:46.358Z,67.97
2018-03-25T05:32:49.635Z,60.50
2018-03-25T05:33:52.117Z,63.45
2018-03-25T05:34:54.588Z,59.95
2018-03-25T05:35:57.044Z,64.20
2018-03-25T05:36:59.499Z,58.38
2018-03-25T05:38:02.757Z,61.50
2018-03-25T05:39:05.251Z,62.50
2018-03-25T05:40:07.717Z,58.75
2018-03-25T05:41:11.003Z,63.17
2018-03-25T05:42:13.462Z,60.92
2018-03-25T05:43:16.738Z,72.80
2018-03-25T05:44:19.210Z,65.00
2018-03-25T05:45:21.689Z,61.08
2018-03-25T05:46:24.204Z,62.25
2018-03-25T05:47:26.705Z,61.10
2018-03-25T05:48:30.065Z,58.67
2018-03-25T05:49:32.599Z,62.75
2018-03-25T05:50:35.112Z,67.65
2018-03-25T05:51:38.336Z,58.03
2018-03-25T05:52:41.572Z,59.47
2018-03-25T05:53:44.150Z,57.25
2018-03-25T05:54:46.656Z,61.58
2018-03-25T05:55:49.154Z,55.78
2018-03-25T05:56:52.411Z,54.22
2018-03-25T05:57:55.645Z,59.30
2018-03-25T05:58:58.920Z,53.45
2018-03-25T06:00:01.388Z,54.35
2018-03-25T06:01:03.850Z,55.53
2018-03-25T06:02:07.100Z,77.12
2018-03-25T06:03:09.584Z,90.53
2018-03-25T06:04:12.092Z,78.22
2018-03-25T06:05:14.573Z,70.55
2018-03-25T06:06:17.054Z,56.65
2018-03-25T06:07:19.639Z,60.70
2018-03-25T06:08:22.126Z,55.53
2018-03-25T06:09:24.607Z,62.65
2018-03-25T06:10:27.074Z,58.08
2018-03-25T06:11:30.315Z,60.03
2018-03-25T06:12:33.588Z,60.83
2018-03-25T06:13:36.072Z,63.63
2018-03-25T06:14:38.528Z,56.15
2018-03-25T06:15:41.792Z,56.17
2018-03-25T06:16:44.284Z,56.08
2018-03-25T06:17:47.547Z,59.85
2018-03-25T06:18:50.028Z,57.40
2018-03-25T06:19:53.267Z,53.08
2018-03-25T06:20:55.765Z,58.90
2018-03-25T06:21:58.331Z,61.28
2018-03-25T06:23:00.804Z,61.83
2018-03-25T06:24:03.300Z,55.40
2018-03-25T06:25:06.554Z,54.95
2018-03-25T06:26:09.790Z,53.13
2018-03-25T06:27:13.056Z,56.08
2018-03-25T06:28:16.278Z,57.47
2018-03-25T06:29:18.753Z,60.45
2018-03-25T06:30:21.342Z,57.72
2018-03-25T06:31:23.806Z,54.30
2018-03-25T06:32:26.381Z,56.47
2018-03-25T06:33:29.613Z,60.60
2018-03-25T06:34:32.855Z,52.28
2018-03-25T06:35:36.110Z,57.03
2018-03-25T06:36:38.603Z,55.88
2018-03-25T06:37:41.080Z,56.95
2018-03-25T06:38:43.559Z,51.75
2018-03-25T06:39:46.025Z,51.75
2018-03-25T06:40:48.498Z,47.55
2018-03-25T06:41:50.962Z,49.67
2018-03-25T06:42:53.436Z,49.40
2018-03-25T06:43:55.920Z,47.75
2018-03-25T06:44:59.246Z,49.90
2018-03-25T06:46:01.680Z,49.13
2018-03-25T06:47:04.150Z,49.75
2018-03-25T06:48:06.605Z,43.90
2018-03-25T06:49:09.847Z,48.42
2018-03-25T06:50:13.189Z,46.30
2018-03-25T06:51:15.656Z,45.47
2018-03-25T06:52:18.246Z,41.22
2018-03-25T06:53:21.491Z,45.90
2018-03-25T06:54:24.731Z,44.08
2018-03-25T06:55:27.996Z,47.88
2018-03-25T06:56:30.474Z,44.78
2018-03-25T06:57:32.954Z,42.08
2018-03-25T06:58:35.435Z,44.35
2018-03-25T06:59:37.923Z,46.08
2018-03-25T07:00:40.419Z,43.92
2018-03-25T07:01:42.885Z,44.15
2018-03-25T07:02:45.378Z,44.78
2018-03-25T07:03:47.881Z,40.40
2018-03-25T07:04:51.110Z,44.13
2018-03-25T07:05:53.653Z,41.47
2018-03-25T07:06:56.953Z,42.95
2018-03-25T07:07:59.418Z,43.13
2018-03-25T07:09:02.657Z,43.95
2018-03-25T07:10:05.892Z,41.25
2018-03-25T07:11:08.399Z,45.03
2018-03-25T07:12:11.782Z,51.28
2018-03-25T07:13:15.004Z,44.67
2018-03-25T07:14:17.487Z,42.75
2018-03-25T07:15:19.967Z,42.28
2018-03-25T07:16:23.250Z,45.12
2018-03-25T07:17:25.751Z,43.25
2018-03-25T07:18:28.230Z,43.30
2018-03-25T07:19:30.686Z,45.53
2018-03-25T07:20:33.934Z,46.08
2018-03-25T07:21:37.206Z,44.97
2018-03-25T07:22:39.707Z,41.78
2018-03-25T07:23:42.180Z,42.88
2018-03-25T07:24:44.661Z,46.40
2018-03-25T07:25:47.146Z,45.53
2018-03-25T07:26:49.629Z,40.90
2018-03-25T07:27:52.096Z,44.40
2018-03-25T07:28:54.583Z,42.42
2018-03-25T07:29:57.164Z,43.80
2018-03-25T07:30:59.643Z,45.33
2018-03-25T07:32:02.114Z,42.75
2018-03-25T07:33:05.349Z,43.78
2018-03-25T07:34:07.848Z,43.58
2018-03-25T07:35:10.316Z,46.70
2018-03-25T07:36:13.587Z,47.17
2018-03-25T07:37:16.051Z,45.92
2018-03-25T07:38:20.103Z,42.15
2018-03-25T07:39:22.558Z,44.78
2018-03-25T07:40:26.120Z,43.05
2018-03-25T07:41:29.390Z,43.38
2018-03-25T07:42:31.892Z,44.40
2018-03-25T07:43:35.153Z,54.13
2018-03-25T07:44:37.802Z,43.92
2018-03-25T07:45:40.311Z,46.40
2018-03-25T07:46:42.795Z,44.28
2018-03-25T07:47:46.075Z,41.45
2018-03-25T07:48:48.565Z,66.50
2018-03-25T07:49:51.812Z,46.15
2018-03-25T07:50:54.325Z,42.78
2018-03-25T07:51:56.803Z,43.78
2018-03-25T07:52:59.404Z,48.87
2018-03-25T07:54:01.878Z,48.05
2018-03-25T07:55:04.347Z,53.33
2018-03-25T07:56:07.592Z,57.62
2018-03-25T07:57:10.868Z,49.10
2018-03-25T07:58:13.391Z,44.42
2018-03-25T07:59:15.914Z,50.12
2018-03-25T08:00:18.394Z,60.33
2018-03-25T08:01:21.652Z,48.05
2018-03-25T08:02:24.879Z,53.22
2018-03-25T08:03:28.153Z,49.28
2018-03-25T08:04:30.658Z,48.45
2018-03-25T08:05:33.907Z,49.45
2018-03-25T08:06:37.138Z,49.53
2018-03-25T08:07:40.384Z,50.90
2018-03-25T08:08:43.624Z,69.20
2018-03-25T08:09:46.891Z,74.78
2018-03-25T08:10:49.375Z,52.72
2018-03-25T08:11:51.937Z,52.08
2018-03-25T08:12:54.460Z,53.08
2018-03-25T08:13:56.924Z,90.10
2018-03-25T08:14:59.409Z,57.35
2018-03-25T08:16:01.950Z,52.00
2018-03-25T08:17:04.479Z,49.47
2018-03-25T08:18:07.744Z,51.90
2018-03-25T08:19:10.231Z,45.25
2018-03-25T08:20:12.736Z,55.03
2018-03-25T08:21:15.987Z,46.65
2018-03-25T08:22:19.240Z,76.70
2018-03-25T08:23:22.267Z,55.17
2018-03-25T08:24:25.547Z,81.37
2018-03-25T08:25:28.077Z,53.30
2018-03-25T08:26:30.575Z,62.38
2018-03-25T08:27:33.103Z,56.40
2018-03-25T08:28:35.576Z,51.78
2018-03-25T08:29:38.106Z,57.40
2018-03-25T08:30:40.582Z,51.88
2018-03-25T08:31:43.154Z,53.38
2018-03-25T08:32:45.746Z,50.67
2018-03-25T08:33:48.385Z,58.30
2018-03-25T08:34:50.838Z,54.10
2018-03-25T08:35:53.528Z,58.13
2018-03-25T08:36:56.024Z,56.03
2018-03-25T08:37:59.292Z,55.70
2018-03-25T08:39:01.798Z,51.13
2018-03-25T08:40:05.051Z,73.00
2018-03-25T08:41:07.568Z,54.97
2018-03-25T08:42:10.861Z,55.88
2018-03-25T08:43:13.365Z,57.88
2018-03-25T08:44:15.854Z,51.95
2018-03-25T08:45:19.159Z,53.87
2018-03-25T08:46:21.631Z,54.38
2018-03-25T08:47:24.134Z,57.17
2018-03-25T08:48:26.618Z,60.50
2018-03-25T08:49:29.115Z,55.20
2018-03-25T08:50:31.584Z,62.35
2018-03-25T08:51:34.083Z,55.35
2018-03-25T08:52:36.583Z,57.95
2018-03-25T08:53:39.064Z,56.45
2018-03-25T08:54:41.550Z,58.40
2018-03-25T08:55:44.083Z,56.40
2018-03-25T08:56:46.619Z,60.83
2018-03-25T08:57:49.514Z,62.08
2018-03-25T08:58:52.784Z,60.33
2018-03-25T08:59:55.254Z,57.72
2018-03-25T09:00:57.709Z,55.95
2018-03-25T09:02:00.239Z,61.40
2018-03-25T09:03:03.491Z,56.00
2018-03-25T09:04:06.022Z,61.95
2018-03-25T09:05:08.531Z,56.95
2018-03-25T09:06:11.055Z,56.45
2018-03-25T09:07:13.538Z,55.58
2018-03-25T09:08:16.042Z,56.03
2018-03-25T09:09:18.538Z,58.70
2018-03-25T09:10:21.034Z,61.45
2018-03-25T09:11:24.315Z,61.00
2018-03-25T09:12:26.918Z,59.22
2018-03-25T09:13:29.407Z,56.97
2018-03-25T09:14:31.871Z,52.67
2018-03-25T09:15:34.840Z,57.80
2018-03-25T09:16:37.338Z,55.17
2018-03-25T09:17:40.580Z,57.70
2018-03-25T09:18:43.059Z,60.30
2018-03-25T09:19:45.642Z,54.45
2018-03-25T09:20:48.181Z,62.10
2018-03-25T09:21:50.644Z,54.53
2018-03-25T09:22:54.429Z,58.22
2018-03-25T09:23:56.971Z,58.20
2018-03-25T09:24:59.476Z,55.78
2018-03-25T09:26:02.759Z,58.97
2018-03-25T09:27:05.249Z,61.35
2018-03-25T09:28:08.481Z,64.25
2018-03-25T09:29:11.176Z,64.18
2018-03-25T09:30:13.671Z,55.08
2018-03-25T09:31:16.293Z,52.45
2018-03-25T09:32:18.777Z,57.15
2018-03-25T09:33:21.252Z,59.55
2018-03-25T09:34:23.742Z,60.75
2018-03-25T09:35:27.005Z,55.00
2018-03-25T09:36:29.536Z,56.85
2018-03-25T09:37:32.124Z,61.90
2018-03-25T09:38:34.699Z,59.33
2018-03-25T09:39:37.161Z,58.33
2018-03-25T09:40:39.634Z,59.67
2018-03-25T09:41:42.142Z,58.90
2018-03-25T09:42:45.417Z,57.00
2018-03-25T09:43:47.905Z,63.40
2018-03-25T09:44:51.156Z,57.83
2018-03-25T09:45:54.423Z,58.42
2018-03-25T09:46:56.922Z,58.80
2018-03-25T09:48:00.204Z,60.70
2018-03-25T09:49:02.762Z,54.90
2018-03-25T09:50:06.038Z,56.55
2018-03-25T09:51:09.327Z,58.03
2018-03-25T09:52:11.879Z,61.20
2018-03-25T09:53:14.786Z,56.80
2018-03-25T09:54:17.281Z,57.72
2018-03-25T09:55:19.779Z,53.50
2018-03-25T09:56:23.084Z,70.72
2018-03-25T09:57:25.560Z,53.50
2018-03-25T09:58:28.822Z,59.65
2018-03-25T09:59:31.333Z,63.45
2018-03-25T10:00:36.417Z,66.22
2018-03-25T10:03:31.123Z,61.00
2018-03-25T10:04:33.646Z,60.70
2018-03-25T10:05:36.169Z,67.37
2018-03-25T10:06:38.683Z,58.17
2018-03-25T10:07:41.288Z,62.80
2018-03-25T10:08:44.608Z,55.60
2018-03-25T10:09:47.696Z,61.03
2018-03-25T10:10:50.994Z,60.25
2018-03-25T10:11:53.576Z,56.47
2018-03-25T10:12:56.126Z,56.90
2018-03-25T10:13:58.618Z,68.95
2018-03-25T10:15:01.127Z,57.15
2018-03-25T10:16:04.425Z,56.30
2018-03-25T10:17:07.017Z,56.53
2018-03-25T10:18:09.568Z,63.17
2018-03-25T10:19:12.023Z,55.38
2018-03-25T10:20:14.620Z,53.10
2018-03-25T10:21:17.095Z,55.30
2018-03-25T10:22:19.625Z,69.40
2018-03-25T10:23:22.878Z,57.53
2018-03-25T10:24:26.131Z,53.67
2018-03-25T10:25:29.372Z,57.62
2018-03-25T10:26:31.838Z,56.22
2018-03-25T10:27:34.456Z,58.85
2018-03-25T10:28:36.936Z,58.47
2018-03-25T10:29:40.157Z,61.25
2018-03-25T10:30:42.715Z,57.45
2018-03-25T10:31:45.959Z,60.55
2018-03-25T10:32:48.455Z,55.38
2018-03-25T10:33:50.936Z,65.50
2018-03-25T10:34:53.395Z,57.47
2018-03-25T10:35:55.860Z,55.55
2018-03-25T10:36:58.336Z,55.67
2018-03-25T10:38:00.823Z,53.55
2018-03-25T10:39:03.403Z,53.67
2018-03-25T10:40:05.916Z,53.72
2018-03-25T10:41:08.378Z,54.45
2018-03-25T10:42:11.601Z,58.30
2018-03-25T10:43:14.103Z,61.60
2018-03-25T10:44:16.598Z,60.12
2018-03-25T10:45:19.082Z,56.33
2018-03-25T10:46:22.318Z,53.15
2018-03-25T10:47:24.842Z,58.83
2018-03-25T10:48:27.410Z,53.70
2018-03-25T10:49:29.918Z,62.80
2018-03-25T10:50:32.406Z,55.40
2018-03-25T10:51:34.883Z,62.42
2018-03-25T10:52:37.876Z,58.15
2018-03-25T10:53:40.371Z,56.17
2018-03-25T10:54:43.028Z,57.13
2018-03-25T10:55:50.393Z,51.70
2018-03-25T10:56:52.933Z,50.63
2018-03-25T10:57:55.427Z,73.85
2018-03-25T10:58:57.989Z,64.35
2018-03-25T11:00:00.565Z,59.78
2018-03-25T11:01:03.033Z,62.90
2018-03-25T11:02:05.532Z,53.90
2018-03-25T11:03:10.008Z,51.53
2018-03-25T11:04:13.323Z,51.37
2018-03-25T11:05:15.973Z,58.03
2018-03-25T11:06:18.466Z,53.08
2018-03-25T11:07:20.978Z,53.60
2018-03-25T11:08:24.048Z,49.92
2018-03-25T11:10:42.086Z,50.35
2018-03-25T11:11:44.568Z,49.47
2018-03-25T11:12:47.070Z,51.70
2018-03-25T11:13:50.316Z,53.38
2018-03-25T11:14:53.604Z,51.70
2018-03-25T11:15:56.327Z,49.08
2018-03-25T11:16:58.805Z,52.30
2018-03-25T11:18:02.064Z,51.30
2018-03-25T11:19:05.307Z,51.55
2018-03-25T11:20:07.807Z,48.67
2018-03-25T11:21:10.291Z,46.17
2018-03-25T11:22:12.767Z,73.00
2018-03-25T11:23:16.018Z,56.08
2018-03-25T11:24:19.290Z,52.25
2018-03-25T11:25:21.810Z,58.45
2018-03-25T11:26:24.346Z,56.05
2018-03-25T11:27:26.856Z,50.20
2018-03-25T11:28:29.347Z,48.30
2018-03-25T11:29:31.906Z,49.25
2018-03-25T11:30:35.061Z,54.60
2018-03-25T11:31:37.621Z,52.22
2018-03-25T11:32:40.219Z,52.97
2018-03-25T11:33:42.704Z,48.20
2018-03-25T11:34:45.950Z,59.05
2018-03-25T11:35:49.183Z,87.10
2018-03-25T11:36:51.763Z,59.70
2018-03-25T11:37:54.234Z,57.20
2018-03-25T11:38:57.475Z,78.15
2018-03-25T11:39:59.927Z,61.45
2018-03-25T11:41:02.400Z,65.20
2018-03-25T11:42:04.995Z,58.08
2018-03-25T11:43:07.471Z,82.60
2018-03-25T11:44:10.046Z,62.83
2018-03-25T11:45:12.537Z,63.95
2018-03-25T11:46:15.802Z,62.08
2018-03-25T11:47:18.257Z,57.75
2018-03-25T11:48:20.931Z,52.05
2018-03-25T11:49:24.207Z,61.45
2018-03-25T11:50:26.720Z,50.40
2018-03-25T11:51:29.223Z,60.55
2018-03-25T11:52:31.695Z,55.00
2018-03-25T11:53:34.206Z,54.97
2018-03-25T11:54:36.707Z,56.83
2018-03-25T11:55:39.997Z,58.50
2018-03-25T11:56:42.486Z,54.50
2018-03-25T11:57:45.023Z,50.47
2018-03-25T11:58:47.630Z,66.47
2018-03-25T11:59:50.935Z,59.40
2018-03-25T12:00:53.476Z,64.47
2018-03-25T12:01:56.073Z,56.60
2018-03-25T12:02:58.550Z,56.10
2018-03-25T12:04:01.060Z,49.45
2018-03-25T12:05:03.569Z,56.58
2018-03-25T12:06:06.177Z,54.83
2018-03-25T12:07:08.671Z,65.28
2018-03-25T12:08:11.206Z,52.65
2018-03-25T12:09:13.702Z,60.33
2018-03-25T12:10:17.034Z,48.05
2018-03-25T12:11:20.302Z,64.18
2018-03-25T12:12:23.578Z,70.95
2018-03-25T12:13:26.099Z,98.53
2018-03-25T12:14:28.606Z,67.55
2018-03-25T12:15:31.070Z,48.60
2018-03-25T12:16:33.554Z,49.30
2018-03-25T12:17:36.064Z,53.72
2018-03-25T12:18:39.325Z,47.90
2018-03-25T12:19:41.819Z,52.72
2018-03-25T12:20:44.284Z,51.35
2018-03-25T12:21:46.756Z,51.25
2018-03-25T12:22:49.223Z,54.42
2018-03-25T12:23:51.767Z,49.13
2018-03-25T12:24:54.809Z,51.08
2018-03-25T12:25:57.289Z,52.05
2018-03-25T12:27:00.533Z,46.88
2018-03-25T12:28:03.791Z,47.33
2018-03-25T12:29:07.059Z,52.42
2018-03-25T12:30:09.563Z,45.90
2018-03-25T12:31:12.104Z,48.70
2018-03-25T12:32:14.566Z,46.92
2018-03-25T12:33:17.170Z,46.92
2018-03-25T12:34:20.399Z,51.95
2018-03-25T12:35:22.952Z,52.65
2018-03-25T12:36:25.455Z,53.05
2018-03-25T12:37:27.958Z,49.50
2018-03-25T12:38:30.413Z,50.53
2018-03-25T12:39:32.895Z,53.78
2018-03-25T12:40:35.401Z,51.00
2018-03-25T12:41:37.938Z,48.28
2018-03-25T12:42:41.191Z,47.22
2018-03-25T12:43:44.427Z,54.53
2018-03-25T12:44:47.721Z,53.28
2018-03-25T12:45:50.179Z,51.45
2018-03-25T12:46:52.786Z,53.78
2018-03-25T12:47:55.268Z,49.83
2018-03-25T12:48:57.787Z,50.03
2018-03-25T12:50:01.065Z,63.53
2018-03-25T12:51:03.538Z,100.80
2018-03-25T12:52:06.787Z,222.52
2018-03-25T12:53:10.352Z,73.85
2018-03-25T12:54:13.262Z,50.40
2018-03-25T12:55:16.772Z,88.93
2018-03-25T12:56:19.251Z,51.72
2018-03-25T12:57:21.789Z,51.97
2018-03-25T12:58:24.333Z,51.47
2018-03-25T12:59:26.813Z,63.55
2018-03-25T13:00:29.409Z,58.25
2018-03-25T13:01:31.990Z,52.95
2018-03-25T13:02:34.519Z,54.33
2018-03-25T13:03:37.007Z,55.45
2018-03-25T13:04:39.470Z,46.92
2018-03-25T13:05:41.937Z,52.50
2018-03-25T13:06:44.535Z,56.45
2018-03-25T13:07:46.990Z,49.97
2018-03-25T13:08:49.464Z,52.83
2018-03-25T13:09:52.790Z,88.72
2018-03-25T13:10:55.375Z,104.72
2018-03-25T13:12:00.319Z,67.75
2018-03-25T13:13:03.757Z,107.53
2018-03-25T13:14:06.301Z,94.00
2018-03-25T13:15:08.872Z,55.55
2018-03-25T13:16:11.380Z,59.72
2018-03-25T13:17:13.884Z,58.10
2018-03-25T13:18:16.375Z,58.87
2018-03-25T13:19:18.920Z,57.53
2018-03-25T13:20:22.171Z,59.00
2018-03-25T13:21:24.852Z,52.05
2018-03-25T13:22:27.514Z,55.63
2018-03-25T13:23:30.164Z,47.72
2018-03-25T13:24:32.688Z,50.97
2018-03-25T13:25:35.208Z,53.03
2018-03-25T13:26:37.801Z,49.00
2018-03-25T13:27:40.374Z,53.83
2018-03-25T13:28:42.890Z,60.03
2018-03-25T13:29:45.448Z,49.97
2018-03-25T13:30:47.942Z,51.37